createdAt,value
2022-09-16T00:00:55.690Z,20.06
2022-09-16T00:03:22.752Z,20.20
2022-09-16T00:05:52.577Z,20.25
2022-09-16T00:08:20.448Z,20.32
2022-09-16T00:10:50.221Z,20.33
2022-09-16T00:13:17.984Z,20.32
2022-09-16T00:15:53.892Z,20.38
2022-09-16T00:18:20.644Z,20.38
2022-09-16T00:20:50.971Z,20.36
2022-09-16T00:23:18.980Z,20.34
2022-09-16T00:25:56.204Z,20.34
2022-09-16T00:28:26.478Z,20.29
2022-09-16T00:30:58.971Z,20.25
2022-09-16T00:33:25.958Z,20.26
2022-09-16T00:35:52.823Z,20.31
2022-09-16T00:38:19.861Z,20.40
2022-09-16T00:40:48.913Z,20.19
2022-09-16T00:43:19.034Z,20.15
2022-09-16T00:45:56.756Z,20.35
2022-09-16T00:48:27.880Z,20.12
2022-09-16T00:50:59.964Z,20.04
2022-09-16T00:53:42.733Z,20.00
2022-09-16T00:56:15.338Z,19.93
2022-09-16T00:59:02.332Z,19.88
2022-09-16T01:01:31.993Z,19.75
2022-09-16T01:04:04.375Z,19.72
2022-09-16T01:06:32.298Z,19.68
2022-09-16T01:09:00.605Z,19.76
2022-09-16T01:11:29.354Z,19.80
2022-09-16T01:14:16.613Z,19.94
2022-09-16T01:16:52.008Z,19.92
2022-09-16T01:19:39.962Z,19.96
2022-09-16T01:22:41.065Z,19.98
2022-09-16T01:25:15.672Z,19.96
2022-09-16T01:27:56.414Z,20.01
2022-09-16T01:30:29.322Z,20.01
2022-09-16T01:33:14.232Z,20.03
2022-09-16T01:35:58.290Z,20.02
2022-09-16T01:38:51.400Z,19.98
2022-09-16T01:41:33.334Z,19.98
2022-09-16T01:44:39.356Z,19.98
2022-09-16T01:47:18.593Z,19.99
2022-09-16T01:50:06.256Z,19.98
2022-09-16T01:52:36.863Z,19.98
2022-09-16T01:55:20.852Z,19.92
2022-09-16T01:57:57.269Z,19.94
2022-09-16T02:00:25.691Z,19.90
2022-09-16T02:03:03.960Z,19.96
2022-09-16T02:05:48.925Z,19.95
2022-09-16T02:08:22.798Z,19.96
2022-09-16T02:11:12.987Z,19.91
2022-09-16T02:13:44.655Z,19.88
2022-09-16T02:16:16.953Z,19.81
2022-09-16T02:18:51.850Z,19.82
2022-09-16T02:21:24.255Z,19.84
2022-09-16T02:23:57.818Z,19.90
2022-09-16T02:26:39.017Z,19.98
2022-09-16T02:29:18.793Z,19.97
2022-09-16T02:31:53.564Z,19.96
2022-09-16T02:34:34.141Z,19.93
2022-09-16T02:37:09.976Z,20.00
2022-09-16T02:39:41.682Z,20.06
2022-09-16T02:42:11.567Z,20.03
2022-09-16T02:44:39.697Z,19.95
2022-09-16T02:47:13.912Z,19.97
2022-09-16T02:50:01.095Z,19.87
2022-09-16T02:52:53.549Z,19.89
2022-09-16T02:55:50.422Z,19.90
2022-09-16T02:58:17.391Z,19.80
2022-09-16T03:00:49.049Z,19.83
2022-09-16T03:03:16.185Z,19.83
2022-09-16T03:06:10.648Z,19.83
2022-09-16T03:08:38.805Z,19.85
2022-09-16T03:11:29.954Z,19.85
2022-09-16T03:14:15.788Z,19.80
2022-09-16T03:16:53.649Z,19.78
2022-09-16T03:19:48.517Z,19.80
2022-09-16T03:22:30.123Z,19.80
2022-09-16T03:25:23.437Z,19.82
2022-09-16T03:28:12.096Z,19.83
2022-09-16T03:30:49.184Z,19.80
2022-09-16T03:33:30.110Z,19.81
2022-09-16T03:36:03.488Z,19.79
2022-09-16T03:38:31.866Z,19.77
2022-09-16T03:41:02.784Z,19.79
2022-09-16T03:43:30.978Z,19.79
2022-09-16T03:45:59.553Z,19.78
2022-09-16T03:48:26.812Z,19.69
2022-09-16T03:50:54.254Z,19.66
2022-09-16T03:53:20.913Z,19.63
2022-09-16T03:55:50.373Z,19.61
2022-09-16T03:58:17.453Z,19.59
2022-09-16T04:00:50.927Z,19.57
2022-09-16T04:03:17.968Z,19.60
2022-09-16T04:05:44.693Z,19.57
2022-09-16T04:08:12.123Z,19.56
2022-09-16T04:10:38.968Z,19.48
2022-09-16T04:13:05.685Z,19.47
2022-09-16T04:15:37.214Z,19.51
2022-09-16T04:18:04.598Z,19.52
2022-09-16T04:20:31.335Z,19.46
2022-09-16T04:22:57.989Z,19.41
2022-09-16T04:25:37.493Z,19.47
2022-09-16T04:28:04.225Z,19.48
2022-09-16T04:30:32.309Z,19.41
2022-09-16T04:33:00.603Z,19.40
2022-09-16T04:35:27.354Z,19.39
2022-09-16T04:37:54.262Z,19.35
2022-09-16T04:40:25.240Z,19.35
2022-09-16T04:42:53.268Z,19.31
2022-09-16T04:45:20.043Z,19.32
2022-09-16T04:47:46.853Z,19.35
2022-09-16T04:50:14.492Z,19.30
2022-09-16T04:52:48.191Z,19.25
2022-09-16T04:55:15.667Z,19.18
2022-09-16T04:57:43.066Z,19.16
2022-09-16T05:00:11.483Z,19.18
2022-09-16T05:02:41.323Z,19.15
2022-09-16T05:05:08.261Z,19.15
2022-09-16T05:07:36.503Z,19.16
2022-09-16T05:10:06.992Z,19.16
2022-09-16T05:12:34.166Z,19.13
2022-09-16T05:15:00.850Z,19.09
2022-09-16T05:17:49.923Z,19.13
2022-09-16T05:20:17.674Z,19.14
2022-09-16T05:22:45.373Z,19.22
2022-09-16T05:25:13.333Z,19.25
2022-09-16T05:27:41.245Z,19.33
2022-09-16T05:30:11.333Z,19.30
2022-09-16T05:32:38.163Z,19.31
2022-09-16T05:35:07.077Z,19.35
2022-09-16T05:37:34.192Z,19.32
2022-09-16T05:40:00.958Z,19.36
2022-09-16T05:42:29.710Z,19.35
2022-09-16T05:44:56.388Z,19.36
2022-09-16T05:47:23.043Z,19.40
2022-09-16T05:49:54.745Z,19.36
2022-09-16T05:52:25.437Z,19.44
2022-09-16T05:54:52.598Z,19.37
2022-09-16T05:57:21.682Z,19.46
2022-09-16T05:59:48.625Z,19.53
2022-09-16T06:02:16.676Z,19.53
2022-09-16T06:04:43.689Z,19.57
2022-09-16T06:07:11.004Z,19.59
2022-09-16T06:09:38.648Z,19.46
2022-09-16T06:12:06.928Z,19.39
2022-09-16T06:14:33.684Z,19.36
2022-09-16T06:17:00.440Z,19.34
2022-09-16T06:19:27.554Z,19.39
2022-09-16T06:21:55.465Z,19.48
2022-09-16T06:24:25.236Z,19.70
2022-09-16T06:26:51.968Z,19.81
2022-09-16T06:29:19.341Z,20.35
2022-09-16T06:31:55.333Z,21.39
2022-09-16T06:34:26.676Z,22.75
2022-09-16T06:36:54.027Z,23.34
2022-09-16T06:39:24.588Z,23.65
2022-09-16T06:41:51.891Z,24.46
2022-09-16T06:44:19.846Z,24.13
2022-09-16T06:46:46.977Z,23.62
2022-09-16T06:49:14.985Z,23.06
2022-09-16T06:51:42.077Z,22.81
2022-09-16T06:54:11.919Z,22.58
2022-09-16T06:56:41.118Z,22.27
2022-09-16T06:59:08.611Z,21.98
2022-09-16T07:01:36.068Z,21.71
2022-09-16T07:04:05.511Z,21.44
2022-09-16T07:07:04.862Z,21.30
2022-09-16T07:09:32.376Z,21.24
2022-09-16T07:11:59.352Z,21.22
2022-09-16T07:14:27.980Z,21.22
2022-09-16T07:16:55.742Z,21.16
2022-09-16T07:19:22.712Z,21.18
2022-09-16T07:21:49.810Z,21.33
2022-09-16T07:24:16.713Z,21.22
2022-09-16T07:26:45.040Z,21.23
2022-09-16T07:29:15.233Z,21.32
2022-09-16T07:31:44.415Z,21.51
2022-09-16T07:34:14.709Z,21.62
2022-09-16T07:36:46.848Z,21.55
2022-09-16T07:39:17.957Z,21.34
2022-09-16T07:41:52.682Z,21.21
2022-09-16T07:44:20.687Z,21.03
2022-09-16T07:46:48.344Z,20.94
2022-09-16T07:49:17.560Z,20.98
2022-09-16T07:51:45.535Z,20.99
2022-09-16T07:54:15.775Z,21.66
2022-09-16T07:56:44.484Z,23.10
2022-09-16T07:59:18.308Z,24.61
2022-09-16T08:01:49.673Z,25.44
2022-09-16T08:04:19.562Z,25.66
2022-09-16T08:06:46.460Z,25.56
2022-09-16T08:12:02.704Z,25.78
2022-09-16T08:14:29.476Z,26.33
2022-09-16T08:16:59.292Z,26.26
2022-09-16T08:19:26.132Z,27.22
2022-09-16T08:21:54.729Z,28.71
2022-09-16T08:24:21.580Z,29.47
2022-09-16T08:26:48.383Z,29.80
2022-09-16T08:29:16.821Z,30.48
2022-09-16T08:31:44.543Z,30.56
2022-09-16T08:34:11.268Z,30.64
2022-09-16T08:36:37.977Z,29.92
2022-09-16T08:39:04.779Z,28.31
2022-09-16T08:41:44.542Z,27.25
2022-09-16T08:44:43.103Z,26.10
2022-09-16T08:47:42.664Z,26.94
2022-09-16T08:50:31.711Z,29.52
2022-09-16T08:53:07.297Z,30.99
2022-09-16T08:55:40.971Z,32.04
2022-09-16T08:58:37.546Z,31.42
2022-09-16T09:01:17.787Z,30.55
2022-09-16T09:03:46.570Z,31.39
2022-09-16T09:06:31.564Z,30.65
2022-09-16T09:09:17.037Z,29.85
2022-09-16T09:12:08.473Z,29.09
2022-09-16T09:14:59.222Z,29.11
2022-09-16T09:17:37.261Z,30.96
2022-09-16T09:20:26.558Z,30.45
2022-09-16T09:23:12.056Z,33.31
2022-09-16T09:25:57.843Z,35.36
2022-09-16T09:28:45.753Z,36.50
2022-09-16T09:31:29.640Z,35.92
2022-09-16T09:34:34.165Z,33.89
2022-09-16T09:37:44.807Z,32.74
2022-09-16T09:40:16.415Z,31.89
2022-09-16T09:42:53.548Z,31.15
2022-09-16T09:45:35.723Z,30.22
2022-09-16T09:48:21.179Z,29.94
2022-09-16T09:50:49.706Z,28.97
2022-09-16T09:53:28.089Z,28.06
2022-09-16T09:56:51.256Z,28.01
2022-09-16T09:59:47.097Z,27.34
2022-09-16T10:02:21.950Z,26.06
2022-09-16T10:04:51.881Z,25.05
2022-09-16T10:07:22.164Z,24.54
2022-09-16T10:09:55.308Z,24.14
2022-09-16T10:12:36.104Z,24.01
2022-09-16T10:15:04.633Z,23.86
2022-09-16T10:17:32.867Z,26.61
2022-09-16T10:20:20.828Z,29.85
2022-09-16T10:23:00.687Z,33.42
2022-09-16T10:25:32.104Z,34.36
2022-09-16T10:28:01.317Z,35.16
2022-09-16T10:30:33.257Z,35.42
2022-09-16T10:33:24.666Z,35.41
2022-09-16T10:35:57.796Z,34.52
2022-09-16T10:38:34.812Z,32.20
2022-09-16T10:41:14.744Z,29.98
2022-09-16T10:43:59.639Z,27.93
2022-09-16T10:46:27.818Z,26.64
2022-09-16T10:49:00.734Z,25.62
2022-09-16T10:51:34.297Z,25.12
2022-09-16T10:54:07.323Z,24.66
2022-09-16T10:57:11.377Z,24.58
2022-09-16T11:00:13.568Z,24.48
2022-09-16T11:02:59.430Z,25.34
2022-09-16T11:05:44.613Z,26.10
2022-09-16T11:08:30.649Z,26.95
2022-09-16T11:11:35.234Z,26.99
2022-09-16T11:14:39.378Z,27.72
2022-09-16T11:17:18.307Z,28.05
2022-09-16T11:20:02.821Z,28.31
2022-09-16T11:22:46.510Z,28.61
2022-09-16T11:25:34.165Z,28.80
2022-09-16T11:28:37.788Z,29.92
2022-09-16T11:31:13.223Z,31.25
2022-09-16T11:34:01.655Z,32.75
2022-09-16T11:36:58.491Z,33.69
2022-09-16T11:39:46.280Z,33.02
2022-09-16T11:42:33.284Z,31.98
2022-09-16T11:45:20.511Z,30.80
2022-09-16T11:48:06.005Z,29.46
2022-09-16T11:51:11.499Z,28.45
2022-09-16T11:53:57.179Z,28.15
2022-09-16T11:56:35.242Z,29.32
2022-09-16T11:59:40.960Z,30.99
2022-09-16T12:02:29.426Z,30.60
2022-09-16T12:05:23.138Z,30.18
2022-09-16T12:08:24.769Z,28.72
2022-09-16T12:10:59.799Z,28.32
2022-09-16T12:13:39.744Z,27.34
2022-09-16T12:16:18.809Z,26.79
2022-09-16T12:18:53.335Z,26.38
2022-09-16T12:21:57.996Z,26.21
2022-09-16T12:24:41.716Z,25.85
2022-09-16T12:27:35.020Z,25.68
2022-09-16T12:30:18.330Z,25.53
2022-09-16T12:32:53.083Z,25.74
2022-09-16T12:38:01.901Z,25.79
2022-09-16T12:40:43.540Z,25.92
2022-09-16T12:43:13.328Z,25.90
2022-09-16T12:46:19.965Z,26.12
2022-09-16T12:49:03.586Z,25.82
2022-09-16T12:51:48.296Z,25.97
2022-09-16T12:55:06.575Z,26.37
2022-09-16T12:58:08.341Z,26.91
2022-09-16T13:00:38.761Z,27.07
2022-09-16T13:03:16.973Z,27.01
2022-09-16T13:05:50.494Z,27.01
2022-09-16T13:08:29.972Z,26.95
2022-09-16T13:11:47.241Z,26.81
2022-09-16T13:13:56.437Z,26.45
2022-09-16T13:16:35.747Z,26.57
2022-09-16T13:19:25.843Z,26.33
2022-09-16T13:22:06.260Z,25.83
2022-09-16T13:24:54.774Z,25.17
2022-09-16T13:27:24.643Z,24.76
2022-09-16T13:29:51.761Z,24.20
2022-09-16T13:32:27.236Z,23.79
2022-09-16T13:35:02.005Z,23.37
2022-09-16T13:37:28.884Z,23.23
2022-09-16T13:39:55.575Z,23.23
2022-09-16T13:42:24.814Z,23.28
2022-09-16T13:44:52.883Z,23.51
2022-09-16T13:47:35.046Z,23.56
2022-09-16T13:50:13.033Z,23.76
2022-09-16T13:52:41.170Z,24.19
2022-09-16T13:55:21.026Z,24.50
2022-09-16T13:58:08.382Z,24.60
2022-09-16T14:00:50.396Z,24.58
2022-09-16T14:03:37.074Z,24.65
2022-09-16T14:06:37.911Z,24.72
2022-09-16T14:09:04.544Z,24.55
2022-09-16T14:11:53.761Z,24.53
2022-09-16T14:17:32.932Z,24.59
2022-09-16T14:20:01.204Z,24.55
2022-09-16T14:22:28.910Z,24.66
2022-09-16T14:25:06.107Z,24.73
2022-09-16T14:27:43.395Z,24.86
2022-09-16T14:30:32.847Z,24.76
2022-09-16T14:33:04.366Z,24.52
2022-09-16T14:35:33.379Z,24.08
2022-09-16T14:40:53.586Z,23.01
2022-09-16T14:43:21.856Z,22.57
2022-09-16T14:45:54.438Z,22.29
2022-09-16T14:48:28.528Z,22.03
2022-09-16T14:50:56.106Z,21.87
2022-09-16T14:53:38.054Z,21.70
2022-09-16T14:56:05.671Z,21.60
2022-09-16T14:58:34.782Z,21.64
2022-09-16T15:01:12.091Z,21.60
2022-09-16T15:03:44.370Z,21.71
2022-09-16T15:06:19.137Z,21.54
2022-09-16T15:08:57.438Z,21.47
2022-09-16T15:11:48.617Z,21.46
2022-09-16T15:14:21.594Z,21.05
2022-09-16T15:16:56.208Z,20.78
2022-09-16T15:19:31.491Z,20.39
2022-09-16T15:21:58.447Z,20.26
2022-09-16T15:24:33.703Z,20.30
2022-09-16T15:27:01.629Z,20.18
2022-09-16T15:29:35.090Z,20.15
2022-09-16T15:32:21.609Z,20.26
2022-09-16T15:34:49.583Z,20.25
2022-09-16T15:37:49.764Z,20.29
2022-09-16T15:40:20.609Z,20.33
2022-09-16T15:43:02.628Z,20.38
2022-09-16T15:45:30.777Z,20.38
2022-09-16T15:48:11.218Z,20.51
2022-09-16T15:50:44.642Z,20.52
2022-09-16T15:53:32.074Z,20.56
2022-09-16T15:56:05.727Z,20.64
2022-09-16T15:58:33.090Z,20.63
2022-09-16T16:01:20.820Z,20.46
2022-09-16T16:03:54.921Z,20.54
2022-09-16T16:06:56.852Z,20.69
2022-09-16T16:09:27.024Z,20.68
2022-09-16T16:11:58.770Z,20.66
2022-09-16T16:14:34.177Z,20.65
2022-09-16T16:17:19.063Z,20.67
2022-09-16T16:19:48.149Z,20.82
2022-09-16T16:22:18.141Z,20.86
2022-09-16T16:24:45.455Z,20.80
2022-09-16T16:27:12.222Z,20.66
2022-09-16T16:29:41.313Z,20.60
2022-09-16T16:32:11.539Z,20.58
2022-09-16T16:34:48.248Z,20.53
2022-09-16T16:37:33.796Z,20.55
2022-09-16T16:40:06.224Z,20.42
2022-09-16T16:42:36.082Z,20.27
2022-09-16T16:45:07.231Z,20.00
2022-09-16T16:47:34.861Z,19.97
2022-09-16T16:50:02.095Z,19.73
2022-09-16T16:52:29.632Z,19.51
2022-09-16T16:54:56.361Z,19.29
2022-09-16T16:57:25.201Z,18.96
2022-09-16T16:59:52.218Z,18.94
2022-09-16T17:02:20.481Z,18.86
2022-09-16T17:04:53.028Z,18.89
2022-09-16T17:07:26.175Z,18.82
2022-09-16T17:09:54.081Z,18.80
2022-09-16T17:12:20.840Z,18.84
2022-09-16T17:14:48.346Z,18.97
2022-09-16T17:17:15.347Z,18.94
2022-09-16T17:19:42.245Z,18.89
2022-09-16T17:22:10.597Z,18.92
2022-09-16T17:24:39.244Z,18.93
2022-09-16T17:27:06.062Z,18.90
2022-09-16T17:29:32.805Z,18.86
2022-09-16T17:32:05.344Z,18.94
2022-09-16T17:34:32.604Z,18.85
2022-09-16T17:37:04.162Z,18.91
2022-09-16T17:39:32.165Z,18.82
2022-09-16T17:42:02.772Z,18.78
2022-09-16T17:44:29.517Z,18.79
2022-09-16T17:46:56.217Z,18.71
2022-09-16T17:49:24.614Z,18.61
2022-09-16T17:51:53.902Z,18.57
2022-09-16T17:54:21.908Z,18.44
2022-09-16T17:56:51.202Z,18.36
2022-09-16T17:59:19.177Z,18.31
2022-09-16T18:01:46.659Z,18.35
2022-09-16T18:04:14.934Z,18.25
2022-09-16T18:06:45.453Z,18.24
2022-09-16T18:09:14.567Z,18.29
2022-09-16T18:11:43.032Z,18.15
2022-09-16T18:14:12.072Z,18.23
2022-09-16T18:16:40.432Z,18.31
2022-09-16T18:19:08.382Z,18.38
2022-09-16T18:21:38.396Z,18.43
2022-09-16T18:24:10.941Z,18.45
2022-09-16T18:26:38.753Z,18.51
2022-09-16T18:29:11.808Z,18.47
2022-09-16T18:31:44.653Z,18.36
2022-09-16T18:34:12.583Z,18.33
2022-09-16T18:36:43.119Z,18.24
2022-09-16T18:39:18.895Z,18.19
2022-09-16T18:41:46.382Z,18.17
2022-09-16T18:44:17.249Z,18.03
2022-09-16T18:46:45.765Z,18.09
2022-09-16T18:49:15.036Z,18.14
2022-09-16T18:51:50.920Z,17.98
2022-09-16T18:54:29.399Z,18.05
2022-09-16T18:56:57.754Z,18.04
2022-09-16T18:59:28.644Z,18.03
2022-09-16T19:01:58.598Z,18.12
2022-09-16T19:04:32.463Z,18.06
2022-09-16T19:07:07.942Z,18.11
2022-09-16T19:09:42.443Z,17.92
2022-09-16T19:12:11.003Z,17.98
2022-09-16T19:14:38.612Z,17.86
2022-09-16T19:17:05.714Z,17.73
2022-09-16T19:19:33.598Z,17.68
2022-09-16T19:22:05.269Z,17.62
2022-09-16T19:24:33.159Z,17.51
2022-09-16T19:27:03.341Z,17.47
2022-09-16T19:29:30.868Z,17.37
2022-09-16T19:31:58.922Z,17.33
2022-09-16T19:34:25.741Z,17.39
2022-09-16T19:36:55.055Z,17.37
2022-09-16T19:39:24.853Z,17.37
2022-09-16T19:41:53.236Z,17.35
2022-09-16T19:44:21.278Z,17.28
2022-09-16T19:46:49.512Z,17.24
2022-09-16T19:49:19.938Z,17.18
2022-09-16T19:51:48.200Z,17.19
2022-09-16T19:54:15.924Z,17.16
2022-09-16T19:56:45.898Z,17.17
2022-09-16T19:59:15.446Z,17.19
2022-09-16T20:01:42.285Z,17.09
2022-09-16T20:04:12.351Z,17.24
2022-09-16T20:06:41.646Z,17.22
2022-09-16T20:09:14.211Z,17.32
2022-09-16T20:11:47.620Z,17.24
2022-09-16T20:14:20.640Z,17.25
2022-09-16T20:16:52.964Z,17.20
2022-09-16T20:19:24.765Z,17.26
2022-09-16T20:21:53.767Z,17.13
2022-09-16T20:24:25.989Z,17.01
2022-09-16T20:26:58.708Z,17.06
2022-09-16T20:29:35.993Z,17.00
2022-09-16T20:32:09.889Z,17.00
2022-09-16T20:34:36.899Z,16.91
2022-09-16T20:37:05.861Z,16.88
2022-09-16T20:39:34.338Z,16.82
2022-09-16T20:42:01.432Z,16.86
2022-09-16T20:44:28.794Z,16.94
2022-09-16T20:46:58.657Z,16.97
2022-09-16T20:49:40.579Z,16.91
2022-09-16T20:52:07.826Z,16.88
2022-09-16T20:54:36.146Z,16.94
2022-09-16T20:57:03.601Z,16.76
2022-09-16T20:59:36.762Z,16.79
2022-09-16T21:02:06.308Z,16.84
2022-09-16T21:04:33.540Z,16.82
2022-09-16T21:07:02.093Z,16.78
2022-09-16T21:14:14.521Z,16.76
2022-09-16T21:16:42.868Z,16.74
2022-09-16T21:19:12.652Z,16.68
2022-09-16T21:21:44.762Z,16.59
2022-09-16T21:24:16.558Z,16.62
2022-09-16T21:26:46.629Z,16.57
2022-09-16T21:29:21.537Z,16.62
2022-09-16T21:31:50.464Z,16.65
2022-09-16T21:34:21.320Z,16.53
2022-09-16T21:36:50.510Z,16.48
2022-09-16T21:39:22.563Z,16.48
2022-09-16T21:41:51.706Z,16.39
2022-09-16T21:44:19.567Z,16.44
2022-09-16T21:46:47.067Z,16.40
2022-09-16T21:49:30.206Z,16.43
2022-09-16T21:52:06.795Z,16.42
2022-09-16T21:54:41.200Z,16.36
2022-09-16T21:57:14.401Z,16.33
2022-09-16T21:59:43.594Z,16.24
2022-09-16T22:02:12.823Z,16.27
2022-09-16T22:04:39.535Z,16.24
2022-09-16T22:07:11.063Z,16.22
2022-09-16T22:09:38.383Z,16.20
2022-09-16T22:12:08.286Z,16.30
2022-09-16T22:14:37.307Z,16.29
2022-09-16T22:17:07.206Z,16.41
2022-09-16T22:19:35.040Z,16.33
2022-09-16T22:22:11.180Z,16.34
2022-09-16T22:24:39.505Z,16.29
2022-09-16T22:27:08.596Z,16.25
2022-09-16T22:29:37.624Z,16.20
2022-09-16T22:32:08.945Z,16.07
2022-09-16T22:34:40.848Z,16.03
2022-09-16T22:37:10.660Z,15.82
2022-09-16T22:39:41.140Z,15.93
2022-09-16T22:42:07.773Z,15.90
2022-09-16T22:44:37.187Z,15.86
2022-09-16T22:47:06.677Z,15.79
2022-09-16T22:49:35.910Z,15.68
2022-09-16T22:52:04.125Z,15.66
2022-09-16T22:54:35.107Z,15.61
2022-09-16T22:57:06.139Z,15.61
2022-09-16T22:59:35.639Z,15.59
2022-09-16T23:02:02.453Z,15.62
2022-09-16T23:04:33.715Z,15.62
2022-09-16T23:07:01.496Z,15.57
2022-09-16T23:09:28.726Z,15.53
2022-09-16T23:11:56.831Z,15.52
2022-09-16T23:14:26.215Z,15.40
2022-09-16T23:16:56.606Z,15.36
2022-09-16T23:19:38.687Z,15.27
2022-09-16T23:22:08.457Z,15.24
2022-09-16T23:24:35.899Z,15.20
2022-09-16T23:27:08.169Z,15.23
2022-09-16T23:29:36.229Z,15.21
2022-09-16T23:32:04.849Z,15.23
2022-09-16T23:34:34.149Z,15.33
2022-09-16T23:37:02.365Z,15.36
2022-09-16T23:39:32.342Z,15.36
2022-09-16T23:42:01.807Z,15.37
2022-09-16T23:44:32.400Z,15.36
2022-09-16T23:47:00.197Z,15.25
2022-09-16T23:49:29.747Z,15.24
2022-09-16T23:52:03.701Z,15.25
2022-09-16T23:54:37.691Z,15.16
2022-09-16T23:57:06.782Z,15.22
2022-09-16T23:59:34.932Z,15.16
